• Join FlightAware (Why Join?)
  • Login
  • US Flag 
Trick or treat! (Boo!!) 
04:24AM EDT


 

Airport Tracker/Info


-or-


 

Live Flight TrackerFlight Track Log ✈ PDT4314 ✈ 17-Oct-2013 ✈ KBGM - KPHL

Flight Track Log - Related Links

Times and Time Zones

All times are in EDT time to prevent confusion due to time zone crossing. See the PDT4314 flight status page for this flight to view local times or setup timezone preferences in your user account.

Time Position Orientation Groundspeed Altitude Reporting Facility
EDT Latitude Longitude Course Direction KTS MPH feet Rate Location/Type
06:15PM 41.9924 -75.9090 180° South  Level Estimated
06:16PM 41.9370 -75.9146 184° South  Level FlightAware Approximate
06:17PM 41.8830 -75.8964 154° Southeast  Level Estimated
06:18PM 41.8291 -75.8783 160° South  Level Estimated
06:19PM 41.7752 -75.8602 159° South  Level Estimated
06:20PM 41.7203 -75.8482 171° South  Level FlightAware Approximate
06:21PM 41.6655 -75.8361 171° South  Level FlightAware Approximate
06:22PM 41.6116 -75.8178 153° Southeast  Level Estimated
06:23PM 41.5578 -75.7994 161° South  Level Estimated
06:24PM 41.5045 -75.7781 163° South  Level FlightAware Approximate
06:25PM 41.4513 -75.7568 163° South  Level FlightAware Approximate
06:26PM 41.3974 -75.7388 162° South  Level Estimated
06:27PM 41.3446 -75.7158 162° South  Level FlightAware Approximate
06:28PM 41.2917 -75.6928 162° South  Level FlightAware Approximate
06:29PM 41.2389 -75.6699 162° South  Level FlightAware Approximate
06:30PM 41.1860 -75.6470 162° South  Level FlightAware Approximate
06:31PM 41.1320 -75.6299 159° South  Level Estimated
06:32PM 41.0779 -75.6129 163° South  Level Estimated
06:33PM 41.0253 -75.5891 161° South  Level FlightAware Approximate
06:34PM 40.9727 -75.5653 161° South  Level FlightAware Approximate
06:35PM 40.9201 -75.5415 161° South  Level FlightAware Approximate
06:36PM 40.8675 -75.5178 161° South  Level FlightAware Approximate
06:37PM 40.8131 -75.5024 190° South  Level Estimated
06:38PM 40.7575 -75.5020 180° South  Level FlightAware Approximate
06:39PM 40.7020 -75.5016 180° South  Level FlightAware Approximate
06:40PM 40.6479 -75.4844 187° South  Level Estimated
06:41PM 40.5926 -75.4916 186° South  Level FlightAware Approximate
06:42PM 40.5389 -75.4727 190° South  Level Estimated
06:43PM 40.4845 -75.4874 192° South  Level FlightAware Approximate
06:43PM 40.6000 -75.4833 143° Southeast 235 270 5,100  Level Philadelphia TRACON
06:44PM 40.4300 -75.5019 192° South  Level FlightAware Approximate
06:45PM 40.3777 -75.4773 180° South  Level Estimated
06:45PM 40.5167 -75.5000 189° South 213 245 5,000  Level Philadelphia TRACON
06:46PM 40.3254 -75.4526 143° Southeast  Level Estimated
06:46PM 40.4667 -75.5167 194° South 205 236 5,000  Level Philadelphia TRACON
06:47PM 40.2730 -75.4280 143° Southeast  Level Estimated
06:47PM 40.4167 -75.5000 166° South 210 242 5,000  Level Philadelphia TRACON
06:48PM 40.2207 -75.4035 143° Southeast  Level Estimated
06:48PM 40.3667 -75.4500 143° Southeast 213 245 5,000  Level Philadelphia TRACON
06:49PM 40.1684 -75.3789 143° Southeast  Level Estimated
06:49PM 40.3167 -75.4000 143° Southeast 213 245 5,000  Level Philadelphia TRACON
06:50PM 40.2667 -75.3667 153° Southeast 222 255 4,500 -540 Descending Philadelphia TRACON
06:51PM 40.2167 -75.3333 153° Southeast 228 262 4,000 -300 Descending Philadelphia TRACON
06:52PM 40.1667 -75.3000 153° Southeast 217 250 4,000  Level Philadelphia TRACON
06:53PM 40.1000 -75.2667 159° South 208 239 4,000  Level Philadelphia TRACON
06:54PM 40.0500 -75.2333 153° Southeast 207 238 4,000  Level Philadelphia TRACON
06:55PM 40.0000 -75.2000 153° Southeast 208 239 4,000  Level Philadelphia TRACON
06:56PM 39.9500 -75.1667 153° Southeast 208 239 4,000  Level Philadelphia TRACON
06:57PM 39.9000 -75.1500 166° South 211 243 4,000 -600 Level Philadelphia TRACON
06:58PM 39.8333 -75.1333 169° South 190 219 2,800 -960 Descending Philadelphia TRACON
06:59PM 39.8000 -75.1667 218° Southwest 156 180 2,000 -960 Descending Philadelphia TRACON
07:00PM 39.8333 -75.2167 311° West 168 193 900 -960 Descending Philadelphia TRACON
07:01PM 39.8667 -75.2333 339° North 130 150 100 -840 Descending Philadelphia TRACON
07:03PM 39.8722 -75.2409 113° Southeast  Level Estimated